Time;durP1;ratioP1;P1;durP2;ratioP2;P2;SDS_P1;SDS_P2;PMS_P1;PMS_P2;Temp;Humidity;BMP_temperature;BMP_pressure;BME280_temperature;BME280_humidity;BME280_pressure;Samples;Min_cycle;Max_cycle;Signal;HPM_P1;HPM_P2
2023/10/30 00:01:17;;;;;;;6.53;1.83;;;;;;;12.49;95.36;99611.66;5054385;28;20039;-62
2023/10/30 00:03:42;;;;;;;7.18;1.60;;;;;;;12.46;95.72;99605.66;5058861;28;20150;-62
2023/10/30 00:06:08;;;;;;;12.18;1.98;;;;;;;12.46;95.88;99610.00;5057882;28;20636;-62
2023/10/30 00:08:33;;;;;;;6.68;1.42;;;;;;;12.46;96.33;99613.44;5052592;28;20035;-62
2023/10/30 00:10:59;;;;;;;7.47;1.42;;;;;;;12.49;95.67;99609.06;5054996;28;20674;-62
2023/10/30 00:13:24;;;;;;;9.55;2.00;;;;;;;12.53;95.55;99614.06;5054886;28;20036;-62
2023/10/30 00:15:50;;;;;;;9.70;1.67;;;;;;;12.56;95.42;99615.69;5040103;28;20128;-63
2023/10/30 00:18:15;;;;;;;8.10;1.42;;;;;;;12.61;95.00;99609.50;5033366;28;20037;-62
2023/10/30 00:20:40;;;;;;;9.95;1.70;;;;;;;12.63;95.16;99619.78;5037839;28;20083;-62
2023/10/30 00:23:06;;;;;;;8.68;2.08;;;;;;;12.67;94.51;99617.03;5035905;28;20033;-62
2023/10/30 00:25:31;;;;;;;8.85;1.85;;;;;;;12.75;94.62;99620.22;5055113;28;20044;-62
2023/10/30 00:27:59;;;;;;;8.10;1.67;;;;;;;12.83;93.69;99617.34;5046818;28;20098;-63
2023/10/30 00:30:26;;;;;;;6.32;1.60;;;;;;;12.86;93.46;99619.81;5037200;28;20896;-63
2023/10/30 00:32:51;;;;;;;8.70;1.88;;;;;;;12.88;93.31;99618.84;5044278;28;20036;-62
2023/10/30 00:35:17;;;;;;;8.63;1.98;;;;;;;12.83;93.94;99627.72;5033464;28;20031;-63
2023/10/30 00:37:43;;;;;;;5.57;1.38;;;;;;;12.82;94.18;99629.44;5036229;28;20057;-63
2023/10/30 00:40:09;;;;;;;9.27;1.38;;;;;;;12.84;93.90;99624.22;5031036;28;20103;-62
2023/10/30 00:42:35;;;;;;;17.88;2.75;;;;;;;12.83;94.28;99627.72;5036220;28;20454;-62
2023/10/30 00:45:00;;;;;;;11.82;1.90;;;;;;;12.85;93.90;99624.16;5035845;28;20555;-62
2023/10/30 00:47:25;;;;;;;8.52;1.40;;;;;;;12.84;94.09;99626.81;5037952;28;20033;-62
2023/10/30 00:49:51;;;;;;;7.53;1.88;;;;;;;12.84;94.25;99632.84;5038381;28;20045;-62
2023/10/30 00:52:16;;;;;;;5.07;1.83;;;;;;;12.85;94.40;99646.66;5047251;28;20085;-61
2023/10/30 00:54:41;;;;;;;9.13;2.17;;;;;;;12.86;94.26;99644.00;5043513;28;20029;-62
2023/10/30 00:57:07;;;;;;;8.77;1.63;;;;;;;12.90;93.81;99635.22;5039495;28;20045;-62
2023/10/30 00:59:32;;;;;;;8.02;1.70;;;;;;;12.89;93.96;99635.28;5039450;28;20581;-62
2023/10/30 01:01:57;;;;;;;15.43;1.92;;;;;;;12.87;94.10;99635.34;5037983;28;20071;-62
2023/10/30 01:04:23;;;;;;;8.65;2.03;;;;;;;12.91;93.73;99636.91;5061944;28;20062;-62
2023/10/30 01:06:48;;;;;;;11.10;2.10;;;;;;;12.88;94.32;99641.38;5064570;28;20068;-62
2023/10/30 01:09:14;;;;;;;7.80;1.70;;;;;;;12.88;94.25;99641.38;5051566;28;20122;-62
2023/10/30 01:11:39;;;;;;;8.85;1.92;;;;;;;12.88;93.88;99631.00;5041450;28;20053;-62
2023/10/30 01:14:04;;;;;;;10.98;1.88;;;;;;;12.87;94.15;99630.16;5040707;28;20400;-62
2023/10/30 01:16:30;;;;;;;7.75;1.85;;;;;;;12.89;93.93;99633.53;5035068;28;20131;-62
2023/10/30 01:18:55;;;;;;;5.95;1.50;;;;;;;12.85;94.45;99636.31;5047920;28;20032;-66
2023/10/30 01:21:20;;;;;;;11.20;2.25;;;;;;;12.86;93.96;99633.63;5049608;28;20037;-67
2023/10/30 01:23:46;;;;;;;4.88;1.17;;;;;;;12.90;93.63;99639.56;5034803;28;20041;-67
2023/10/30 01:26:11;;;;;;;9.20;1.55;;;;;;;12.89;93.82;99637.84;5056407;28;20040;-67
2023/10/30 01:28:37;;;;;;;10.68;1.30;;;;;;;12.86;94.31;99643.16;5046647;28;20782;-66
2023/10/30 01:31:04;;;;;;;9.90;1.90;;;;;;;12.85;94.04;99649.25;5037033;28;20105;-67
2023/10/30 01:33:30;;;;;;;16.80;2.88;;;;;;;12.84;93.89;99645.81;5049969;28;20621;-67
2023/10/30 01:35:56;;;;;;;12.73;1.88;;;;;;;12.81;94.08;99660.63;5051141;28;20036;-66
2023/10/30 01:38:21;;;;;;;7.82;1.60;;;;;;;12.78;94.17;99664.19;5055111;28;20040;-66
2023/10/30 01:40:51;;;;;;;9.23;2.03;;;;;;;12.76;94.37;99668.56;5056303;28;20041;-66
2023/10/30 01:43:28;;;;;;;11.95;1.70;;;;;;;12.70;95.00;99671.34;5056786;28;20101;-66
2023/10/30 01:45:53;;;;;;;7.75;1.95;;;;;;;12.64;95.34;99669.00;5052369;28;20553;-66
2023/10/30 01:48:19;;;;;;;7.43;1.98;;;;;;;12.63;95.57;99679.41;5057567;28;20040;-65
2023/10/30 01:50:48;;;;;;;11.25;1.83;;;;;;;12.62;95.33;99678.56;5056954;28;20038;-66
2023/10/30 01:53:15;;;;;;;8.65;1.63;;;;;;;12.61;95.64;99669.13;5049119;28;20112;-65
2023/10/30 01:55:41;;;;;;;19.42;2.28;;;;;;;12.64;95.47;99671.59;5057253;28;20032;-66
2023/10/30 01:58:07;;;;;;;10.07;1.80;;;;;;;12.65;95.32;99670.69;5052105;28;20103;-66
2023/10/30 02:00:33;;;;;;;7.63;1.80;;;;;;;12.65;95.27;99670.69;5055177;28;20120;-66
2023/10/30 02:02:59;;;;;;;6.78;1.70;;;;;;;12.63;95.40;99666.44;5053246;28;20048;-65
2023/10/30 02:05:24;;;;;;;6.60;1.92;;;;;;;12.64;95.47;99671.59;5054914;28;20025;-66
2023/10/30 02:07:50;;;;;;;9.90;1.50;;;;;;;12.64;95.59;99674.19;5033900;28;20063;-66
2023/10/30 02:10:15;;;;;;;10.70;1.77;;;;;;;12.64;95.48;99670.75;5052965;28;20089;-66
2023/10/30 02:12:48;;;;;;;9.50;1.83;;;;;;;12.66;95.19;99666.34;5054092;28;20044;-66
2023/10/30 02:15:13;;;;;;;6.53;1.58;;;;;;;12.67;95.13;99668.06;5057028;28;20090;-66
2023/10/30 02:17:38;;;;;;;10.45;1.92;;;;;;;12.68;94.99;99667.97;5057302;28;20043;-67
2023/10/30 02:20:04;;;;;;;5.53;1.58;;;;;;;12.67;95.19;99670.66;5063404;28;20036;-66
2023/10/30 02:22:29;;;;;;;7.90;1.80;;;;;;;12.65;95.28;99670.69;5040171;28;20035;-66
2023/10/30 02:24:55;;;;;;;10.05;2.10;;;;;;;12.68;94.99;99660.19;5060255;28;20036;-66
2023/10/30 02:27:20;;;;;;;8.15;1.92;;;;;;;12.71;94.66;99665.28;5054248;28;20115;-65
2023/10/30 02:29:46;;;;;;;5.95;1.50;;;;;;;12.70;94.55;99667.94;5052590;28;20064;-61
2023/10/30 02:32:11;;;;;;;7.32;1.70;;;;;;;12.64;95.05;99666.41;5057560;28;20068;-61
2023/10/30 02:34:36;;;;;;;9.60;1.67;;;;;;;12.67;94.66;99662.88;5057797;28;20035;-61
2023/10/30 02:37:02;;;;;;;11.40;1.63;;;;;;;12.65;94.83;99667.22;5056141;28;20148;-61
2023/10/30 02:39:32;;;;;;;7.60;1.60;;;;;;;12.66;94.65;99661.16;5058261;28;20650;-61
2023/10/30 02:41:59;;;;;;;6.15;1.10;;;;;;;12.62;95.13;99663.00;5051120;28;20032;-61
2023/10/30 02:44:24;;;;;;;9.52;1.90;;;;;;;12.62;95.18;99657.81;5063313;28;20522;-61
2023/10/30 02:46:50;;;;;;;9.93;1.60;;;;;;;12.60;94.83;99651.84;5059124;28;20032;-61
2023/10/30 02:49:15;;;;;;;7.45;1.60;;;;;;;12.55;95.37;99655.50;5056606;28;20033;-61
2023/10/30 02:51:41;;;;;;;6.82;2.00;;;;;;;12.51;95.82;99646.97;5055814;28;20582;-61
2023/10/30 02:54:06;;;;;;;8.10;2.47;;;;;;;12.50;95.94;99645.28;5057985;28;20123;-61
2023/10/30 02:56:32;;;;;;;7.95;1.90;;;;;;;12.50;96.00;99642.69;5058670;28;20024;-62
2023/10/30 02:58:59;;;;;;;7.70;1.80;;;;;;;12.50;95.81;99645.28;5059608;28;20109;-61
2023/10/30 03:01:24;;;;;;;7.72;1.75;;;;;;;12.53;95.60;99639.13;5059878;28;20046;-61
2023/10/30 03:03:50;;;;;;;5.57;1.33;;;;;;;12.60;94.91;99636.31;5059599;28;20036;-61
2023/10/30 03:06:15;;;;;;;7.32;1.80;;;;;;;12.62;94.57;99631.03;5053651;28;20040;-61
2023/10/30 03:08:41;;;;;;;10.52;2.13;;;;;;;12.60;94.56;99632.84;5043838;28;20555;-61
2023/10/30 03:11:07;;;;;;;9.20;2.05;;;;;;;12.59;94.92;99641.53;5057885;28;20055;-61
2023/10/30 03:13:32;;;;;;;11.05;2.00;;;;;;;12.56;95.12;99639.88;5062769;28;20043;-61
2023/10/30 03:15:59;;;;;;;5.53;1.33;;;;;;;12.55;95.27;99640.81;5054914;28;20040;-61
2023/10/30 03:18:24;;;;;;;8.02;2.08;;;;;;;12.51;95.89;99636.63;5065205;28;20036;-61
2023/10/30 03:20:50;;;;;;;9.18;1.80;;;;;;;12.54;95.71;99636.50;5063337;28;20419;-61
2023/10/30 03:23:15;;;;;;;5.13;1.33;;;;;;;12.59;95.24;99634.59;5058017;28;20099;-62
2023/10/30 03:25:40;;;;;;;7.25;1.77;;;;;;;12.59;95.12;99638.94;5061336;28;20028;-62
2023/10/30 03:28:06;;;;;;;11.18;2.20;;;;;;;12.63;94.70;99631.00;5059009;28;20036;-62
2023/10/30 03:30:36;;;;;;;11.40;2.35;;;;;;;12.63;94.35;99625.81;5058298;28;20116;-62
2023/10/30 03:33:05;;;;;;;7.22;2.00;;;;;;;12.62;94.82;99633.63;5061593;28;20032;-64
2023/10/30 03:35:31;;;;;;;7.38;1.73;;;;;;;12.64;94.67;99631.88;5056878;28;20029;-62
2023/10/30 03:37:57;;;;;;;9.32;1.83;;;;;;;12.66;94.16;99638.69;5057235;28;20040;-63
2023/10/30 03:40:22;;;;;;;7.88;1.88;;;;;;;12.70;93.48;99637.66;5059057;28;20044;-62
2023/10/30 03:42:48;;;;;;;7.07;1.83;;;;;;;12.68;93.81;99634.28;5060259;28;20137;-62
2023/10/30 03:45:13;;;;;;;8.32;1.50;;;;;;;12.66;93.80;99641.28;5061345;28;20036;-62
2023/10/30 03:47:39;;;;;;;7.40;2.13;;;;;;;12.66;93.74;99643.00;5059747;28;20032;-62
2023/10/30 03:50:06;;;;;;;8.23;2.00;;;;;;;12.66;93.83;99646.47;5060486;28;20040;-62
2023/10/30 03:52:31;;;;;;;5.95;1.20;;;;;;;12.68;93.66;99649.84;5068974;28;20032;-62
2023/10/30 03:55:03;;;;;;;6.47;1.55;;;;;;;12.65;94.18;99649.09;5059216;28;20028;-62
2023/10/30 03:57:29;;;;;;;5.68;1.88;;;;;;;12.63;94.28;99643.97;5061213;28;20037;-62
2023/10/30 03:59:54;;;;;;;9.80;1.55;;;;;;;12.63;94.36;99640.53;5067055;28;20035;-62
2023/10/30 04:02:20;;;;;;;6.68;1.67;;;;;;;12.63;94.58;99633.59;5058512;28;20025;-62
2023/10/30 04:04:45;;;;;;;7.57;1.48;;;;;;;12.68;94.14;99638.63;5063909;28;21204;-62
2023/10/30 04:07:10;;;;;;;10.40;1.92;;;;;;;12.68;93.64;99636.88;5059747;28;20060;-62
2023/10/30 04:09:36;;;;;;;5.75;1.40;;;;;;;12.72;93.76;99642.81;5036109;28;20037;-62
2023/10/30 04:12:02;;;;;;;6.85;1.30;;;;;;;12.71;93.87;99631.56;5055915;28;20463;-62
2023/10/30 04:14:31;;;;;;;7.25;1.42;;;;;;;12.71;93.67;99633.31;5041779;28;20473;-63
2023/10/30 04:16:58;;;;;;;7.07;1.60;;;;;;;12.69;93.83;99635.13;5034138;28;20064;-62
2023/10/30 04:19:23;;;;;;;7.55;1.95;;;;;;;12.63;94.26;99630.16;5038486;28;20286;-62
2023/10/30 04:21:49;;;;;;;7.85;1.65;;;;;;;12.59;95.72;99641.53;5026190;28;20040;-62
2023/10/30 04:24:14;;;;;;;11.38;1.77;;;;;;;12.52;96.19;99637.47;5058165;28;20068;-62
2023/10/30 04:26:39;;;;;;;6.68;1.98;;;;;;;12.47;97.16;99647.97;5058072;28;20391;-62
2023/10/30 04:29:05;;;;;;;12.60;1.98;;;;;;;12.42;98.11;99647.28;5055965;28;20029;-62
2023/10/30 04:31:30;;;;;;;11.30;1.50;;;;;;;12.38;98.38;99637.91;5052941;28;20037;-62
2023/10/30 04:33:55;;;;;;;7.38;1.40;;;;;;;12.39;98.78;99639.63;5036719;28;20041;-61
2023/10/30 04:36:21;;;;;;;8.88;1.42;;;;;;;12.41;98.90;99641.25;5055666;28;20071;-62
2023/10/30 04:38:47;;;;;;;5.70;1.58;;;;;;;12.40;98.96;99647.34;5058032;28;20025;-61
2023/10/30 04:41:12;;;;;;;11.57;2.28;;;;;;;12.37;99.35;99644.88;5053677;28;20037;-61
2023/10/30 04:43:38;;;;;;;6.50;1.42;;;;;;;12.37;99.43;99650.06;5056940;28;20029;-62
2023/10/30 04:46:03;;;;;;;5.85;1.65;;;;;;;12.42;99.41;99660.25;5051240;28;20127;-61
2023/10/30 04:48:32;;;;;;;5.75;1.67;;;;;;;12.40;99.67;99652.53;5060288;28;20037;-61
2023/10/30 04:50:57;;;;;;;10.20;2.08;;;;;;;12.40;99.62;99664.66;5059599;28;20032;-61
2023/10/30 04:53:22;;;;;;;10.32;1.48;;;;;;;12.43;99.31;99665.38;5057955;28;20035;-61
2023/10/30 04:55:51;;;;;;;5.53;1.48;;;;;;;12.44;99.41;99667.06;5055788;28;20041;-61
2023/10/30 04:58:17;;;;;;;8.32;2.42;;;;;;;12.44;99.47;99671.41;5023190;28;20041;-61
2023/10/30 05:00:43;;;;;;;7.82;2.08;;;;;;;12.41;99.58;99671.50;5037922;28;20128;-61
2023/10/30 05:03:12;;;;;;;5.47;1.73;;;;;;;12.40;100.00;99662.91;5036525;28;20041;-61
2023/10/30 05:05:37;;;;;;;13.30;1.88;;;;;;;12.38;100.00;99661.22;5036945;28;20033;-61
2023/10/30 05:08:03;;;;;;;9.15;2.10;;;;;;;12.36;100.00;99666.47;5050290;28;20025;-61
2023/10/30 05:10:28;;;;;;;9.52;1.75;;;;;;;12.32;100.00;99664.88;5057114;28;20472;-61
2023/10/30 05:12:54;;;;;;;9.18;1.80;;;;;;;12.31;100.00;99667.53;5040338;28;20071;-61
2023/10/30 05:15:21;;;;;;;7.50;1.83;;;;;;;12.35;100.00;99674.28;5030897;28;20055;-61
2023/10/30 05:17:46;;;;;;;7.43;1.95;;;;;;;12.35;100.00;99669.09;5054111;28;20075;-61
2023/10/30 05:20:12;;;;;;;10.85;1.92;;;;;;;12.35;100.00;99664.78;5058392;28;20135;-61
2023/10/30 05:22:38;;;;;;;11.65;1.95;;;;;;;12.33;100.00;99670.91;5049186;28;20736;-61
2023/10/30 05:25:05;;;;;;;5.15;1.95;;;;;;;12.32;100.00;99683.03;5050850;28;20582;-61
2023/10/30 05:27:31;;;;;;;10.07;1.92;;;;;;;12.33;100.00;99694.25;5040870;28;20036;-61
2023/10/30 05:29:57;;;;;;;6.68;1.95;;;;;;;12.32;100.00;99687.34;5034318;28;20041;-61
2023/10/30 05:32:23;;;;;;;8.73;2.33;;;;;;;12.33;100.00;99679.53;5053888;28;20033;-61
2023/10/30 05:34:48;;;;;;;5.28;2.00;;;;;;;12.29;100.00;99677.94;5054020;28;20064;-61
2023/10/30 05:37:15;;;;;;;11.30;2.55;;;;;;;12.25;100.00;99684.13;5055365;28;20059;-61
2023/10/30 05:39:41;;;;;;;9.48;2.63;;;;;;;12.22;100.00;99684.22;5053337;28;20742;-61
2023/10/30 05:42:06;;;;;;;7.85;2.53;;;;;;;12.24;100.00;99685.03;5053975;28;20097;-61
2023/10/30 05:44:31;;;;;;;6.15;1.90;;;;;;;12.22;100.00;99680.78;5053561;28;20495;-62
2023/10/30 05:46:58;;;;;;;16.17;6.03;;;;;;;12.21;100.00;99689.44;5055459;28;20033;-61
2023/10/30 05:49:24;;;;;;;7.35;2.63;;;;;;;12.21;100.00;99689.44;5036539;28;20094;-61
2023/10/30 05:51:49;;;;;;;5.35;1.90;;;;;;;12.18;100.00;99693.00;5054925;28;20044;-61
2023/10/30 05:54:15;;;;;;;12.48;2.65;;;;;;;12.18;100.00;99700.75;5056664;28;20551;-61
2023/10/30 05:56:40;;;;;;;8.30;2.13;;;;;;;12.20;100.00;99687.75;5056697;28;20125;-61
2023/10/30 05:59:06;;;;;;;7.35;2.08;;;;;;;12.16;100.00;99679.25;5055387;28;20483;-61
2023/10/30 06:01:31;;;;;;;8.45;2.28;;;;;;;12.18;100.00;99690.41;5049455;28;20033;-61
2023/10/30 06:03:56;;;;;;;6.05;1.75;;;;;;;12.18;100.00;99674.00;5054819;28;20036;-61
2023/10/30 06:06:22;;;;;;;8.25;2.60;;;;;;;12.19;100.00;99680.88;5034420;28;20032;-61
2023/10/30 06:08:47;;;;;;;4.38;1.75;;;;;;;12.17;100.00;99680.06;5052838;28;20021;-61
2023/10/30 06:11:13;;;;;;;10.63;2.63;;;;;;;12.17;100.00;99674.88;5052050;28;20752;-61
2023/10/30 06:13:38;;;;;;;10.82;3.50;;;;;;;12.16;100.00;99668.03;5054741;28;20052;-61
2023/10/30 06:16:04;;;;;;;8.25;2.85;;;;;;;12.16;100.00;99666.28;5050176;28;20041;-61
2023/10/30 06:18:29;;;;;;;8.30;2.70;;;;;;;12.16;100.00;99668.03;5050281;28;21250;-61
2023/10/30 06:20:56;;;;;;;7.63;2.15;;;;;;;12.18;100.00;99661.91;5054892;28;20048;-61
2023/10/30 06:23:21;;;;;;;8.98;3.03;;;;;;;12.19;100.00;99658.44;5032245;28;20302;-61
2023/10/30 06:25:47;;;;;;;6.97;2.33;;;;;;;12.17;100.00;99655.00;5055702;28;20037;-66
2023/10/30 06:28:14;;;;;;;10.25;2.28;;;;;;;12.17;100.00;99660.19;5054665;28;20062;-66
2023/10/30 06:30:41;;;;;;;5.63;2.45;;;;;;;12.17;100.00;99665.38;5045692;28;20033;-66
2023/10/30 06:33:06;;;;;;;5.30;2.05;;;;;;;12.17;100.00;99656.75;5048586;28;20170;-64
2023/10/30 06:35:31;;;;;;;7.90;2.40;;;;;;;12.17;100.00;99662.78;5046405;28;20039;-63
2023/10/30 06:37:57;;;;;;;9.52;2.53;;;;;;;12.17;100.00;99654.16;5046243;28;20032;-63
2023/10/30 06:40:22;;;;;;;7.38;2.30;;;;;;;12.21;100.00;99658.34;5058616;28;20036;-63
2023/10/30 06:42:47;;;;;;;7.55;2.45;;;;;;;12.22;100.00;99657.47;5060546;28;20071;-63
2023/10/30 06:45:13;;;;;;;7.15;2.58;;;;;;;12.24;100.00;99661.69;5057271;28;20329;-63
2023/10/30 06:47:38;;;;;;;9.82;2.72;;;;;;;12.22;100.00;99663.50;5054635;28;20021;-64
2023/10/30 06:50:04;;;;;;;10.57;2.63;;;;;;;12.22;100.00;99650.56;5053985;28;20028;-62
2023/10/30 06:52:29;;;;;;;7.90;3.17;;;;;;;12.23;100.00;99656.56;5047332;28;20507;-63
2023/10/30 06:54:54;;;;;;;6.93;2.55;;;;;;;12.22;100.00;99660.06;5052499;28;20071;-66
2023/10/30 06:57:20;;;;;;;8.18;2.88;;;;;;;12.21;100.00;99660.94;5049855;28;20076;-61
2023/10/30 06:59:45;;;;;;;6.38;2.90;;;;;;;12.17;100.00;99665.38;5051469;28;20037;-61
2023/10/30 07:02:11;;;;;;;7.90;3.10;;;;;;;12.19;100.00;99658.44;5048609;28;20459;-61
2023/10/30 07:04:37;;;;;;;13.82;2.97;;;;;;;12.19;100.00;99671.38;5054825;28;20128;-60
2023/10/30 07:07:03;;;;;;;11.65;3.10;;;;;;;12.25;100.00;99668.59;5034896;28;20039;-60
2023/10/30 07:09:28;;;;;;;10.32;3.28;;;;;;;12.28;100.00;99668.50;5055758;28;20048;-62
2023/10/30 07:11:54;;;;;;;7.07;2.78;;;;;;;12.34;100.00;99670.88;5054918;28;20587;-64
2023/10/30 07:14:19;;;;;;;7.88;2.90;;;;;;;12.43;100.00;99680.09;5053593;28;20930;-64
2023/10/30 07:16:44;;;;;;;6.68;2.85;;;;;;;12.50;100.00;99676.38;5054155;28;20495;-64
2023/10/30 07:19:10;;;;;;;5.63;2.65;;;;;;;12.59;100.00;99660.53;5055388;28;20040;-62
2023/10/30 07:21:35;;;;;;;9.18;2.75;;;;;;;12.63;100.00;99672.50;5054496;28;20814;-62
2023/10/30 07:24:00;;;;;;;10.65;3.38;;;;;;;12.68;100.00;99669.72;5058207;28;20090;-62
2023/10/30 07:26:26;;;;;;;10.80;2.95;;;;;;;12.71;100.00;99665.28;5060453;28;20028;-62
2023/10/30 07:28:55;;;;;;;10.00;2.72;;;;;;;12.71;100.00;99660.09;5056636;28;20047;-62
2023/10/30 07:31:20;;;;;;;8.05;3.20;;;;;;;12.70;100.00;99661.00;5053826;28;20128;-67
2023/10/30 07:33:47;;;;;;;4.53;2.55;;;;;;;12.71;100.00;99661.84;5055111;28;20032;-66
2023/10/30 07:36:12;;;;;;;8.05;2.60;;;;;;;12.73;100.00;99668.66;5054343;28;20044;-67
2023/10/30 07:38:38;;;;;;;5.95;2.80;;;;;;;12.78;100.00;99676.31;5054712;28;20055;-66
2023/10/30 07:41:04;;;;;;;7.28;2.42;;;;;;;12.84;100.00;99670.91;5054749;28;20035;-67
2023/10/30 07:43:29;;;;;;;9.38;2.65;;;;;;;12.84;100.00;99673.50;5055219;28;20033;-67
2023/10/30 07:45:55;;;;;;;6.80;2.53;;;;;;;12.86;100.00;99669.94;5057260;28;20110;-66
2023/10/30 07:48:21;;;;;;;9.23;2.55;;;;;;;12.88;99.86;99677.69;5059578;28;20032;-67
2023/10/30 07:50:47;;;;;;;7.40;2.75;;;;;;;12.89;100.00;99682.81;5054291;28;20040;-66
2023/10/30 07:53:14;;;;;;;7.40;2.40;;;;;;;12.91;100.00;99681.00;5055592;28;20064;-66
2023/10/30 07:55:40;;;;;;;7.55;3.30;;;;;;;12.93;100.00;99678.38;5051400;28;20044;-67
2023/10/30 07:58:05;;;;;;;5.78;3.22;;;;;;;12.95;100.00;99677.41;5055023;28;20047;-67
2023/10/30 08:00:34;;;;;;;4.32;2.42;;;;;;;12.95;100.00;99672.22;5054079;28;20055;-66
2023/10/30 08:03:00;;;;;;;8.73;2.67;;;;;;;12.97;100.00;99673.00;5049738;28;20036;-62
2023/10/30 08:05:30;;;;;;;5.55;2.42;;;;;;;12.98;100.00;99669.50;5056236;28;20039;-62
2023/10/30 08:07:56;;;;;;;5.45;2.50;;;;;;;13.00;100.00;99674.66;5050164;28;20070;-61
2023/10/30 08:10:21;;;;;;;8.07;2.53;;;;;;;13.04;100.00;99667.63;5056195;28;20040;-62
2023/10/30 08:12:47;;;;;;;7.53;2.40;;;;;;;13.08;99.59;99661.44;5058333;28;20037;-61
2023/10/30 08:15:12;;;;;;;9.65;2.60;;;;;;;13.15;99.79;99652.53;5057795;28;20711;-63
2023/10/30 08:17:37;;;;;;;7.45;2.30;;;;;;;13.21;98.70;99644.50;5057281;28;20610;-62
2023/10/30 08:20:04;;;;;;;7.60;2.97;;;;;;;13.28;99.06;99645.97;5057913;28;20052;-64
2023/10/30 08:22:30;;;;;;;10.30;2.70;;;;;;;13.35;98.42;99652.66;5060546;28;20064;-63
2023/10/30 08:24:55;;;;;;;6.82;2.33;;;;;;;13.42;97.48;99654.09;5044501;28;20139;-64
2023/10/30 08:27:21;;;;;;;7.72;2.67;;;;;;;13.50;96.69;99652.91;5036477;28;20085;-65
2023/10/30 08:29:46;;;;;;;6.85;2.63;;;;;;;13.57;96.25;99646.56;5039867;28;20616;-64
2023/10/30 08:32:13;;;;;;;5.72;2.08;;;;;;;13.64;95.88;99651.53;5037900;28;21565;-65
2023/10/30 08:34:38;;;;;;;5.85;2.20;;;;;;;13.71;95.49;99650.41;5038325;28;20049;-64
2023/10/30 08:37:04;;;;;;;9.57;2.33;;;;;;;13.76;94.66;99633.72;5050500;28;20170;-64
2023/10/30 08:39:29;;;;;;;5.68;2.08;;;;;;;13.82;93.92;99630.91;5061056;28;20066;-64
2023/10/30 08:41:54;;;;;;;4.20;2.20;;;;;;;13.90;93.74;99634.03;5037812;28;20094;-64
2023/10/30 08:44:20;;;;;;;5.35;2.03;;;;;;;13.97;93.58;99638.09;5035936;28;20029;-64
2023/10/30 08:46:45;;;;;;;8.32;2.45;;;;;;;14.04;93.13;99636.06;5038974;28;20059;-64
2023/10/30 08:49:10;;;;;;;5.38;2.00;;;;;;;14.09;92.26;99628.94;5051627;28;20048;-64
2023/10/30 08:51:43;;;;;;;5.88;2.67;;;;;;;14.15;92.44;99636.50;5056385;28;20810;-64
2023/10/30 08:54:08;;;;;;;10.57;2.75;;;;;;;14.27;92.52;99629.94;5060856;28;20044;-64
2023/10/30 08:56:34;;;;;;;3.97;1.70;;;;;;;14.34;91.15;99624.41;5059064;28;20534;-64
2023/10/30 08:58:59;;;;;;;6.13;2.03;;;;;;;14.45;90.94;99624.88;5056708;28;20028;-66
2023/10/30 09:01:26;;;;;;;6.95;2.20;;;;;;;14.55;89.92;99617.50;5056824;28;20572;-66
2023/10/30 09:03:52;;;;;;;5.85;2.28;;;;;;;14.74;89.01;99615.81;5052807;28;20036;-67
2023/10/30 09:06:18;;;;;;;4.22;1.95;;;;;;;14.83;88.31;99606.75;5054669;28;20150;-66
2023/10/30 09:08:44;;;;;;;5.63;2.00;;;;;;;14.90;87.77;99597.78;5051922;28;20032;-67
2023/10/30 09:11:09;;;;;;;5.15;1.63;;;;;;;14.97;87.06;99605.22;5055150;28;20494;-67
2023/10/30 09:13:34;;;;;;;4.07;2.35;;;;;;;15.05;86.84;99604.88;5055442;28;20033;-67
2023/10/30 09:16:00;;;;;;;5.50;2.00;;;;;;;15.19;86.75;99594.69;5050860;28;20036;-67
2023/10/30 09:18:25;;;;;;;3.22;1.98;;;;;;;15.25;86.35;99577.94;5053235;28;20111;-66
2023/10/30 09:20:50;;;;;;;4.13;2.22;;;;;;;15.39;85.76;99565.13;5052442;28;20098;-67
2023/10/30 09:23:16;;;;;;;4.97;2.58;;;;;;;15.48;84.67;99556.88;5055012;28;20075;-66
2023/10/30 09:25:42;;;;;;;3.30;1.63;;;;;;;15.50;83.96;99545.47;5056505;28;20040;-66
2023/10/30 09:28:07;;;;;;;2.47;1.42;;;;;;;15.54;83.59;99554.00;5055136;28;20143;-66
2023/10/30 09:30:32;;;;;;;3.30;1.85;;;;;;;15.70;83.84;99560.19;5051691;28;20400;-66
2023/10/30 09:33:00;;;;;;;6.80;1.95;;;;;;;15.79;83.01;99553.69;5051629;28;20040;-66
2023/10/30 09:35:31;;;;;;;4.15;1.50;;;;;;;15.98;82.15;99546.63;5046977;28;20034;-66
2023/10/30 09:37:57;;;;;;;4.30;1.80;;;;;;;16.01;83.05;99557.75;5054026;28;20094;-67
2023/10/30 09:40:26;;;;;;;4.38;1.70;;;;;;;15.95;81.47;99539.81;5052851;28;20032;-65
2023/10/30 09:42:52;;;;;;;5.78;1.90;;;;;;;16.04;80.83;99539.38;5054203;28;20045;-67
2023/10/30 09:45:20;;;;;;;6.30;1.60;;;;;;;16.00;80.24;99527.38;5059737;28;20044;-66
2023/10/30 09:47:46;;;;;;;4.65;1.50;;;;;;;16.06;80.29;99539.28;5059387;28;20024;-66
2023/10/30 09:50:12;;;;;;;4.28;1.48;;;;;;;16.09;80.74;99539.13;5055214;28;20085;-66
2023/10/30 09:52:38;;;;;;;2.97;1.38;;;;;;;16.13;80.26;99533.69;5052959;28;20737;-66
2023/10/30 09:55:08;;;;;;;3.08;1.30;;;;;;;16.23;80.89;99549.72;5048859;28;20041;-65
2023/10/30 09:57:35;;;;;;;3.45;1.70;;;;;;;16.21;79.92;99528.91;5051882;28;20044;-60
2023/10/30 10:00:05;;;;;;;2.47;1.42;;;;;;;16.17;80.40;99540.44;5052207;28;20086;-60
2023/10/30 10:02:32;;;;;;;4.50;1.10;;;;;;;16.17;80.32;99543.06;5045710;28;20099;-64
2023/10/30 10:04:57;;;;;;;2.22;1.10;;;;;;;16.19;80.31;99532.53;5050888;28;20085;-61
2023/10/30 10:07:24;;;;;;;2.13;1.00;;;;;;;16.24;81.46;99548.78;5053123;28;20224;-61
2023/10/30 10:10:00;;;;;;;2.03;1.23;;;;;;;16.33;82.20;99551.75;5050149;28;20106;-62
2023/10/30 10:12:26;;;;;;;3.38;1.15;;;;;;;16.31;80.93;99518.88;5052412;28;20076;-62
2023/10/30 10:14:51;;;;;;;2.80;1.00;;;;;;;16.35;81.21;99535.22;5045361;28;20190;-62
2023/10/30 10:17:17;;;;;;;3.33;0.90;;;;;;;16.37;80.66;99525.53;5055567;28;20263;-61
2023/10/30 10:19:46;;;;;;;2.22;0.90;;;;;;;16.48;79.86;99507.56;5036518;28;20086;-61
2023/10/30 10:22:26;;;;;;;1.35;0.80;;;;;;;16.55;80.32;99511.53;5044683;28;20041;-64
2023/10/30 10:24:52;;;;;;;1.63;1.02;;;;;;;16.49;80.46;99510.09;5051779;28;20094;-61
2023/10/30 10:27:19;;;;;;;2.63;0.70;;;;;;;16.29;80.72;99526.75;5054324;28;20048;-61
2023/10/30 10:29:44;;;;;;;3.05;0.82;;;;;;;16.32;81.13;99523.19;5048750;28;20408;-61
2023/10/30 10:32:11;;;;;;;1.95;0.80;;;;;;;16.39;80.99;99526.28;5050074;28;20094;-62
2023/10/30 10:34:37;;;;;;;3.80;1.02;;;;;;;16.45;80.85;99520.75;5035069;28;20061;-61
2023/10/30 10:37:03;;;;;;;2.13;0.75;;;;;;;16.58;79.92;99504.41;5043051;28;20826;-63
2023/10/30 10:39:47;;;;;;;3.78;0.80;;;;;;;16.63;79.99;99506.75;5051731;28;20048;-63
2023/10/30 10:42:15;;;;;;;3.30;0.85;;;;;;;16.56;80.05;99506.22;5052731;28;20651;-62
2023/10/30 10:44:42;;;;;;;5.15;0.93;;;;;;;16.53;80.24;99506.41;5035143;28;20733;-61
2023/10/30 10:47:07;;;;;;;1.92;0.73;;;;;;;16.58;80.25;99500.94;5053274;28;20494;-62
2023/10/30 10:49:32;;;;;;;1.67;0.60;;;;;;;16.68;80.65;99510.78;5052222;28;20132;-62
2023/10/30 10:51:59;;;;;;;2.83;0.93;;;;;;;16.71;81.17;99512.44;5058197;28;20048;-66
2023/10/30 10:54:31;;;;;;;2.72;0.63;;;;;;;16.74;80.40;99480.94;5059654;28;20042;-66
2023/10/30 10:56:59;;;;;;;5.03;0.68;;;;;;;16.79;80.55;99479.81;5058457;28;20064;-66
2023/10/30 10:59:30;;;;;;;1.85;0.70;;;;;;;16.80;80.50;99481.47;5059699;28;20082;-65
2023/10/30 11:01:59;;;;;;;1.92;0.80;;;;;;;16.70;79.42;99455.94;5060670;28;20044;-66
2023/10/30 11:04:25;;;;;;;1.13;0.73;;;;;;;16.50;79.80;99475.28;5069380;28;20085;-65
2023/10/30 11:06:58;;;;;;;0.63;0.43;;;;;;;16.36;80.55;99482.97;5050537;28;20075;-66
2023/10/30 11:09:49;;;;;;;1.42;0.75;;;;;;;16.15;81.83;99489.28;5057677;28;20051;-66
2023/10/30 11:12:17;;;;;;;3.22;0.80;;;;;;;16.02;82.51;99501.25;5065495;28;22075;-65
2023/10/30 11:14:52;;;;;;;1.58;0.60;;;;;;;15.87;82.99;99496.81;5068347;28;20031;-66
2023/10/30 11:17:18;;;;;;;3.80;0.60;;;;;;;15.86;83.08;99497.72;5053421;28;20090;-66
2023/10/30 11:19:45;;;;;;;1.20;0.57;;;;;;;15.87;83.15;99491.63;5065517;28;20045;-63
2023/10/30 11:22:11;;;;;;;0.98;0.60;;;;;;;15.91;83.16;99491.38;5063118;28;20045;-64
2023/10/30 11:24:43;;;;;;;2.65;0.93;;;;;;;15.96;83.30;99491.16;5060203;28;20058;-63